< < Back
Terminal Aerodrome Forecast


Current Version              Previous Versions:   1  2  3  4  5  6  7  8  9  

Terminal Aerodrome Forecast

336
FTUS44 KOHX 251700
TAFCSV
TAF
KCSV 251736Z 2518/2618 29009KT P6SM SKC
     FM252300 29002KT P6SM OVC150
     FM260700 29001KT P6SM BKN030
     FM261000 30003KT P6SM SCT040=



Latest METAR

297
SAUS70 KWBC 262300 RRE
MTRCSV
METAR KCSV 262253Z AUTO 00000KT 10SM SCT110 06/M06 A3001 RMK AO2 SLP169
T00611061


USA.gov is the U.S. government's official web portal to all federal, state and local government web resources and services.